Time;durP1;ratioP1;P1;durP2;ratioP2;P2;SDS_P1;SDS_P2;PMS_P1;PMS_P2;Temp;Humidity;BMP_temperature;BMP_pressure;BME280_temperature;BME280_humidity;BME280_pressure;Samples;Min_cycle;Max_cycle;Signal;HPM_P1;HPM_P2
2021/04/27 00:00:19;;;;;;;6.22;2.90;;;;;;;0.06;70.43;101392.97;5034925;28;20459;-78
2021/04/27 00:02:45;;;;;;;4.22;2.80;;;;;;;0.06;70.06;101384.16;5016319;28;20037;-78
2021/04/27 00:05:14;;;;;;;8.25;3.17;;;;;;;-0.08;70.40;101382.84;5035222;28;20029;-78
2021/04/27 00:07:39;;;;;;;9.38;3.67;;;;;;;-0.16;70.86;101384.88;5016716;28;20037;-78
2021/04/27 00:10:09;;;;;;;3.60;2.92;;;;;;;-0.22;70.58;101382.44;5035298;28;20041;-78
2021/04/27 00:12:34;;;;;;;2.85;2.35;;;;;;;-0.22;71.29;101387.72;5034273;28;20044;-78
2021/04/27 00:15:00;;;;;;;5.82;2.70;;;;;;;-0.21;70.64;101381.56;5033898;28;20029;-79
2021/04/27 00:17:25;;;;;;;5.72;2.72;;;;;;;-0.23;70.86;101378.09;5034945;28;20032;-78
2021/04/27 00:19:51;;;;;;;3.38;2.42;;;;;;;-0.21;70.45;101375.38;5034086;28;20434;-78
2021/04/27 00:22:16;;;;;;;3.00;2.20;;;;;;;-0.24;70.64;101369.28;5034759;28;20039;-78
2021/04/27 00:24:41;;;;;;;4.80;2.55;;;;;;;-0.22;70.80;101371.00;5033888;28;20030;-78
2021/04/27 00:27:08;;;;;;;5.90;2.70;;;;;;;-0.22;70.77;101365.72;5033669;28;20131;-79
2021/04/27 00:29:33;;;;;;;2.78;2.58;;;;;;;-0.32;71.24;101371.31;5034650;28;20025;-79
2021/04/27 00:31:59;;;;;;;3.70;3.25;;;;;;;-0.40;71.40;101369.84;5042983;28;20385;-79
2021/04/27 00:34:24;;;;;;;5.43;2.67;;;;;;;-0.45;71.77;101369.16;5034294;28;20087;-79
2021/04/27 00:36:50;;;;;;;3.72;2.75;;;;;;;-0.40;71.63;101367.19;5033988;28;20438;-79
2021/04/27 00:39:15;;;;;;;6.50;3.20;;;;;;;-0.40;71.18;101373.34;5033737;28;20048;-79
2021/04/27 00:41:41;;;;;;;6.38;2.40;;;;;;;-0.44;71.73;101369.09;5006350;28;20034;-79
2021/04/27 00:44:07;;;;;;;3.47;2.17;;;;;;;-0.43;71.95;101367.28;5019862;28;20026;-78
2021/04/27 00:46:33;;;;;;;3.05;2.55;;;;;;;-0.37;70.34;101367.09;5034846;28;20117;-79
2021/04/27 00:48:59;;;;;;;4.00;2.50;;;;;;;-0.33;70.55;101364.31;5034736;28;20436;-79
2021/04/27 00:51:25;;;;;;;6.28;2.92;;;;;;;-0.42;70.87;101366.41;5034289;28;20079;-79
2021/04/27 00:53:50;;;;;;;5.45;2.80;;;;;;;-0.44;71.09;101362.94;5034756;28;20132;-78
2021/04/27 00:56:18;;;;;;;5.65;2.50;;;;;;;-0.47;71.96;101362.13;5033136;28;20029;-78
2021/04/27 00:58:45;;;;;;;4.22;2.53;;;;;;;-0.49;71.64;101360.44;5033857;28;20511;-79
2021/04/27 01:01:11;;;;;;;3.88;2.80;;;;;;;-0.54;71.49;101355.31;5032912;28;20092;-79
2021/04/27 01:03:37;;;;;;;8.70;3.10;;;;;;;-0.50;71.62;101353.44;5026825;28;20029;-79
2021/04/27 01:06:03;;;;;;;3.38;2.53;;;;;;;-0.53;71.61;101350.88;5032696;28;20497;-79
2021/04/27 01:08:39;;;;;;;8.75;3.42;;;;;;;-0.51;71.69;101352.56;5014579;28;20139;-80
2021/04/27 01:11:32;;;;;;;7.88;2.50;;;;;;;-0.52;72.05;101344.69;5013649;28;20476;-79
2021/04/27 01:14:11;;;;;;;5.65;2.72;;;;;;;-0.54;71.85;101343.88;5031403;28;20029;-79
2021/04/27 01:16:42;;;;;;;5.28;3.05;;;;;;;-0.58;72.41;101343.13;5035115;28;20048;-79
2021/04/27 01:19:14;;;;;;;3.53;2.40;;;;;;;-0.58;72.17;101344.88;5036162;28;20109;-78
2021/04/27 01:21:40;;;;;;;2.65;2.25;;;;;;;-0.57;72.46;101350.13;5035835;28;20472;-78
2021/04/27 01:24:29;;;;;;;2.97;2.67;;;;;;;-0.60;72.44;101347.59;5033915;28;20038;-78
2021/04/27 01:26:58;;;;;;;3.80;2.35;;;;;;;-0.68;72.73;101346.09;5022341;28;20433;-81
2021/04/27 01:29:28;;;;;;;5.80;2.45;;;;;;;-0.63;72.42;101344.19;5015778;28;20042;-79
2021/04/27 01:31:55;;;;;;;5.03;2.78;;;;;;;-0.59;71.59;101341.38;5027720;28;20037;-79
2021/04/27 01:34:28;;;;;;;9.80;3.92;;;;;;;-0.52;71.90;101340.28;5014246;28;20134;-79
2021/04/27 01:36:55;;;;;;;3.08;2.47;;;;;;;-0.52;71.66;101342.03;5032067;28;20041;-79
2021/04/27 01:39:25;;;;;;;3.03;2.45;;;;;;;-0.53;72.12;101333.25;5031976;28;20527;-78
2021/04/27 01:41:53;;;;;;;4.32;2.45;;;;;;;-0.56;72.37;101341.28;5030138;28;20030;-79
2021/04/27 01:44:19;;;;;;;4.43;2.88;;;;;;;-0.63;72.81;101334.47;5031497;28;20080;-79
2021/04/27 01:46:45;;;;;;;4.00;2.80;;;;;;;-0.60;72.12;101333.53;5027468;28;20071;-79
2021/04/27 01:49:14;;;;;;;7.40;3.50;;;;;;;-0.66;73.03;101333.72;5034771;28;20033;-79
2021/04/27 01:51:40;;;;;;;3.25;2.67;;;;;;;-0.66;72.47;101333.72;5020829;28;20036;-79
2021/04/27 01:54:07;;;;;;;5.13;2.70;;;;;;;-0.66;72.26;101333.72;5033733;28;20033;-78
2021/04/27 01:56:32;;;;;;;2.85;2.53;;;;;;;-0.68;72.05;101336.41;5028671;28;20116;-79
2021/04/27 01:58:58;;;;;;;5.38;2.70;;;;;;;-0.74;72.60;101326.88;5016788;28;20095;-79
2021/04/27 02:01:23;;;;;;;3.42;2.63;;;;;;;-0.78;73.30;101327.06;5018904;28;20036;-79
2021/04/27 02:03:49;;;;;;;3.58;2.58;;;;;;;-0.80;73.40;101331.50;5036046;28;20033;-79
2021/04/27 02:06:15;;;;;;;4.35;2.60;;;;;;;-0.74;73.48;101332.16;5016937;28;20025;-79
2021/04/27 02:08:47;;;;;;;6.00;2.85;;;;;;;-0.74;73.54;101336.59;5043050;28;20606;-79
2021/04/27 02:11:12;;;;;;;4.95;3.00;;;;;;;-0.78;74.06;101330.56;5035518;28;20120;-79
2021/04/27 02:13:38;;;;;;;10.20;3.67;;;;;;;-0.73;73.62;101333.06;5035242;28;20135;-79
2021/04/27 02:16:04;;;;;;;5.50;2.78;;;;;;;-0.71;73.87;101325.94;5036938;28;20392;-79
2021/04/27 02:18:38;;;;;;;5.45;3.85;;;;;;;-0.74;74.22;101323.38;5023746;28;20021;-78
2021/04/27 02:21:04;;;;;;;3.53;2.80;;;;;;;-0.80;74.34;101328.88;5035085;28;20124;-78
2021/04/27 02:23:31;;;;;;;10.02;3.00;;;;;;;-0.82;74.66;101326.28;5036079;28;20029;-79
2021/04/27 02:25:58;;;;;;;4.65;2.95;;;;;;;-0.88;74.39;101323.84;5036244;28;20466;-78
2021/04/27 02:28:25;;;;;;;6.07;2.95;;;;;;;-0.90;74.45;101320.38;5031436;28;20473;-78
2021/04/27 02:30:51;;;;;;;5.00;3.05;;;;;;;-0.89;74.67;101326.53;5038824;28;20124;-78
2021/04/27 02:33:19;;;;;;;7.95;3.58;;;;;;;-0.95;75.00;101323.19;5037345;28;20047;-78
2021/04/27 02:35:44;;;;;;;5.00;3.00;;;;;;;-0.88;74.88;101317.72;5017999;28;20047;-78
2021/04/27 02:38:11;;;;;;;8.63;3.92;;;;;;;-0.93;75.03;101316.06;5017799;28;20033;-78
2021/04/27 02:40:37;;;;;;;3.72;2.83;;;;;;;-0.93;74.37;101316.06;5035883;28;20075;-78
2021/04/27 02:43:02;;;;;;;3.95;2.55;;;;;;;-0.97;74.72;101319.72;5017583;28;20033;-77
2021/04/27 02:45:31;;;;;;;4.70;3.20;;;;;;;-1.02;75.12;101318.13;5035124;28;20048;-78
2021/04/27 02:48:07;;;;;;;4.88;3.05;;;;;;;-1.11;75.14;101319.28;5035047;28;20474;-79
2021/04/27 02:50:33;;;;;;;6.38;2.92;;;;;;;-1.08;75.16;101315.69;5036273;28;20037;-79
2021/04/27 02:52:58;;;;;;;4.93;3.13;;;;;;;-1.09;75.49;101320.09;5039856;28;20040;-78
2021/04/27 02:55:24;;;;;;;4.43;3.35;;;;;;;-1.10;75.38;101318.38;5038764;28;20033;-78
2021/04/27 02:57:49;;;;;;;6.18;3.42;;;;;;;-1.14;75.67;101319.38;5038402;28;20048;-78
2021/04/27 03:00:15;;;;;;;4.60;3.25;;;;;;;-1.17;75.03;101311.53;5032081;28;20072;-78
2021/04/27 03:02:40;;;;;;;6.43;3.17;;;;;;;-1.16;75.56;101321.22;5034589;28;20626;-78
2021/04/27 03:05:06;;;;;;;6.68;3.30;;;;;;;-1.15;75.76;101312.38;5035184;28;20124;-78
2021/04/27 03:07:31;;;;;;;4.28;3.13;;;;;;;-1.20;75.46;101315.13;5038035;28;20022;-78
2021/04/27 03:09:57;;;;;;;3.72;3.10;;;;;;;-1.16;75.93;101314.16;5035910;28;20457;-79
2021/04/27 03:12:22;;;;;;;6.60;3.28;;;;;;;-1.20;75.67;101309.84;5033178;28;20033;-78
2021/04/27 03:14:47;;;;;;;4.00;3.05;;;;;;;-1.19;74.90;101310.75;5035103;28;20542;-79
2021/04/27 03:17:13;;;;;;;6.32;3.25;;;;;;;-1.25;75.56;101306.50;5033692;28;20503;-79
2021/04/27 03:19:38;;;;;;;6.03;3.20;;;;;;;-1.25;75.75;101303.88;5023070;28;20508;-78
2021/04/27 03:22:03;;;;;;;4.35;3.10;;;;;;;-1.24;75.82;101308.22;5035745;28;20116;-79
2021/04/27 03:24:29;;;;;;;4.30;2.97;;;;;;;-1.28;75.50;101300.47;5035598;28;20029;-78
2021/04/27 03:26:54;;;;;;;6.90;2.95;;;;;;;-1.23;74.78;101296.75;5034894;28;20041;-79
2021/04/27 03:29:19;;;;;;;5.57;3.45;;;;;;;-1.24;75.13;101300.31;5034298;28;20034;-79
2021/04/27 03:31:45;;;;;;;4.63;3.20;;;;;;;-1.26;75.02;101307.41;5027198;28;20072;-79
2021/04/27 03:34:10;;;;;;;4.60;3.33;;;;;;;-1.28;74.95;101305.75;5016112;28;20032;-79
2021/04/27 03:36:35;;;;;;;5.57;3.70;;;;;;;-1.31;75.33;101305.84;5022122;28;20086;-79
2021/04/27 03:39:01;;;;;;;4.70;3.53;;;;;;;-1.32;75.19;101302.31;5033753;28;20041;-78
2021/04/27 03:41:26;;;;;;;4.63;3.67;;;;;;;-1.28;74.97;101303.09;5035387;28;20036;-78
2021/04/27 03:43:52;;;;;;;6.75;4.25;;;;;;;-1.23;74.53;101303.81;5019125;28;20033;-78
2021/04/27 03:46:17;;;;;;;6.68;3.65;;;;;;;-1.21;74.23;101302.84;5035657;28;20381;-78
2021/04/27 03:48:42;;;;;;;6.05;3.75;;;;;;;-1.28;74.63;101309.25;5035286;28;20059;-78
2021/04/27 03:51:08;;;;;;;5.72;3.38;;;;;;;-1.27;74.71;101299.53;5034961;28;20033;-78
2021/04/27 03:53:33;;;;;;;5.57;3.00;;;;;;;-1.23;74.42;101301.16;5035007;28;20488;-78
2021/04/27 03:55:59;;;;;;;4.93;3.42;;;;;;;-1.21;74.53;101302.00;5033115;28;20481;-78
2021/04/27 03:58:24;;;;;;;6.65;3.40;;;;;;;-1.21;74.33;101309.91;5034337;28;20071;-78
2021/04/27 04:00:49;;;;;;;8.38;3.80;;;;;;;-1.22;74.21;101305.56;5047208;28;20033;-79
2021/04/27 04:03:15;;;;;;;5.95;3.05;;;;;;;-1.18;74.03;101304.53;5034526;28;20485;-80
2021/04/27 04:05:40;;;;;;;5.07;2.85;;;;;;;-1.20;73.98;101307.22;5033593;28;20481;-79
2021/04/27 04:08:06;;;;;;;11.25;3.83;;;;;;;-1.18;73.80;101310.69;5029217;28;20067;-80
2021/04/27 04:10:31;;;;;;;5.78;3.42;;;;;;;-1.15;73.35;101301.81;5036443;28;20120;-78
2021/04/27 04:12:56;;;;;;;4.95;3.15;;;;;;;-1.13;73.46;101307.03;5031908;28;20503;-79
2021/04/27 04:15:22;;;;;;;7.68;3.50;;;;;;;-1.10;73.75;101307.81;5032101;28;20052;-78
2021/04/27 04:17:47;;;;;;;7.45;2.90;;;;;;;-1.09;73.80;101312.19;5032121;28;20032;-79
2021/04/27 04:20:22;;;;;;;4.95;3.33;;;;;;;-1.04;73.47;101312.00;5030419;28;20045;-80
2021/04/27 04:22:48;;;;;;;8.18;4.95;;;;;;;-1.03;73.18;101304.06;5032942;28;20481;-77
2021/04/27 04:25:15;;;;;;;5.13;3.22;;;;;;;-0.99;73.09;101308.31;5021194;28;20013;-79
2021/04/27 04:27:40;;;;;;;4.80;3.45;;;;;;;-0.91;72.77;101305.47;5017630;28;20083;-78
2021/04/27 04:30:19;;;;;;;3.50;2.75;;;;;;;-0.84;72.80;101306.13;5030873;28;20033;-80
2021/04/27 04:32:46;;;;;;;5.15;3.42;;;;;;;-0.83;72.88;101313.13;5017810;28;20045;-79
2021/04/27 04:35:13;;;;;;;5.85;3.17;;;;;;;-0.73;72.14;101312.78;5022481;28;20030;-78
2021/04/27 04:37:39;;;;;;;9.15;3.63;;;;;;;-0.72;72.61;101313.66;5033453;28;20053;-78
2021/04/27 04:40:06;;;;;;;5.93;3.55;;;;;;;-0.62;72.51;101314.22;5032416;28;20032;-78
2021/04/27 04:42:31;;;;;;;4.72;3.53;;;;;;;-0.51;71.78;101310.31;5032446;28;20040;-79
2021/04/27 04:44:56;;;;;;;5.28;2.80;;;;;;;-0.45;72.29;101317.16;5031513;28;20029;-79
2021/04/27 04:47:22;;;;;;;8.60;2.95;;;;;;;-0.36;71.93;101310.72;5035147;28;20034;-79
2021/04/27 04:49:50;;;;;;;4.55;2.80;;;;;;;-0.30;71.67;101315.78;5035618;28;20076;-79
2021/04/27 04:52:15;;;;;;;6.18;3.10;;;;;;;-0.27;71.74;101320.97;5029778;28;20097;-78
2021/04/27 04:54:41;;;;;;;7.50;3.10;;;;;;;-0.18;71.25;101320.66;5033448;28;20025;-78
2021/04/27 04:57:07;;;;;;;3.28;2.95;;;;;;;-0.08;71.54;101318.53;5033605;28;20040;-78
2021/04/27 04:59:32;;;;;;;8.07;3.53;;;;;;;-0.02;71.84;101321.81;5031886;28;20087;-79
2021/04/27 05:01:57;;;;;;;4.40;2.72;;;;;;;0.07;70.92;101319.78;5014287;28;20041;-78
2021/04/27 05:04:23;;;;;;;3.58;2.92;;;;;;;0.07;71.51;101310.06;5033469;28;20392;-79
2021/04/27 05:06:49;;;;;;;5.15;3.00;;;;;;;0.12;71.26;101312.53;5035347;28;20119;-78
2021/04/27 05:09:14;;;;;;;5.68;2.83;;;;;;;0.15;71.23;101321.25;5033705;28;20030;-79
2021/04/27 05:11:41;;;;;;;4.63;3.10;;;;;;;0.25;70.41;101319.13;5029214;28;20033;-79
2021/04/27 05:14:09;;;;;;;6.93;3.38;;;;;;;0.34;70.56;101310.84;5015965;28;20025;-79
2021/04/27 05:16:34;;;;;;;6.22;3.28;;;;;;;0.47;70.79;101326.28;5032370;28;20053;-78
2021/04/27 05:19:00;;;;;;;5.07;3.22;;;;;;;0.51;70.37;101314.66;5031853;28;20390;-78
2021/04/27 05:21:26;;;;;;;3.65;2.83;;;;;;;0.59;70.55;101315.22;5032423;28;20389;-78
2021/04/27 05:23:51;;;;;;;4.00;2.90;;;;;;;0.66;70.41;101314.06;5033338;28;20034;-78
2021/04/27 05:26:16;;;;;;;6.82;3.05;;;;;;;0.75;70.22;101315.50;5032829;28;20061;-79
2021/04/27 05:28:42;;;;;;;4.85;2.47;;;;;;;0.78;70.11;101318.88;5034938;28;20029;-79
2021/04/27 05:31:08;;;;;;;6.28;2.80;;;;;;;0.89;69.44;101321.13;5022769;28;20546;-78
2021/04/27 05:33:33;;;;;;;3.95;2.92;;;;;;;0.97;69.40;101326.13;5031612;28;20029;-78
2021/04/27 05:35:59;;;;;;;6.78;2.40;;;;;;;1.06;69.47;101323.09;5036707;28;20037;-78
2021/04/27 05:38:27;;;;;;;6.63;2.60;;;;;;;1.17;68.56;101326.19;5035533;28;20086;-78
2021/04/27 05:40:53;;;;;;;4.95;2.63;;;;;;;1.28;67.82;101325.75;5035387;28;20060;-78
2021/04/27 05:43:18;;;;;;;6.68;2.63;;;;;;;1.42;67.71;101328.72;5030544;28;20037;-79
2021/04/27 05:45:44;;;;;;;5.38;2.95;;;;;;;1.51;67.42;101332.78;5020080;28;20033;-79
2021/04/27 05:48:09;;;;;;;7.25;3.10;;;;;;;1.60;66.68;101327.09;5036326;28;20500;-78
2021/04/27 05:50:35;;;;;;;3.70;2.50;;;;;;;1.67;66.54;101325.91;5040979;28;20052;-79
2021/04/27 05:53:00;;;;;;;5.90;2.50;;;;;;;1.80;66.84;101335.06;5027584;28;20036;-79
2021/04/27 05:55:26;;;;;;;4.07;2.38;;;;;;;1.91;65.94;101329.31;5036689;28;20080;-79
2021/04/27 05:57:52;;;;;;;6.60;2.50;;;;;;;2.01;66.03;101335.06;5037856;28;20393;-79
2021/04/27 06:00:18;;;;;;;3.75;2.42;;;;;;;2.12;65.29;101331.97;5037661;28;20491;-79
2021/04/27 06:02:43;;;;;;;3.60;2.17;;;;;;;2.17;65.59;101327.28;5026412;28;20029;-79
2021/04/27 06:05:09;;;;;;;8.18;2.53;;;;;;;2.24;65.99;101334.06;5038070;28;20045;-78
2021/04/27 06:07:35;;;;;;;5.95;2.30;;;;;;;2.30;64.73;101334.66;5037617;28;20521;-79
2021/04/27 06:10:00;;;;;;;6.97;2.40;;;;;;;2.45;64.17;101334.88;5035371;28;20032;-78
2021/04/27 06:12:26;;;;;;;7.43;2.67;;;;;;;2.55;64.54;101330.03;5040277;28;20028;-79
2021/04/27 06:14:51;;;;;;;2.40;2.20;;;;;;;2.61;64.40;101327.09;5039047;28;20401;-79
2021/04/27 06:17:16;;;;;;;5.32;2.50;;;;;;;2.70;63.28;101329.34;5038194;28;20037;-79
2021/04/27 06:19:42;;;;;;;13.43;2.92;;;;;;;2.74;62.94;101326.47;5041107;28;20038;-79
2021/04/27 06:22:07;;;;;;;4.10;2.15;;;;;;;2.83;63.06;101326.97;5037658;28;20030;-79
2021/04/27 06:24:35;;;;;;;2.83;2.15;;;;;;;2.93;62.74;101328.25;5036146;28;20115;-79
2021/04/27 06:27:00;;;;;;;2.22;2.00;;;;;;;2.95;62.35;101331.72;5035346;28;20060;-79
2021/04/27 06:29:25;;;;;;;4.15;2.08;;;;;;;3.23;59.83;101332.09;5020792;28;20060;-79
2021/04/27 06:31:51;;;;;;;5.13;2.13;;;;;;;3.40;59.88;101327.78;5035077;28;20079;-78
2021/04/27 06:34:16;;;;;;;4.57;2.60;;;;;;;3.49;58.77;101332.63;5035859;28;20465;-79
2021/04/27 06:36:42;;;;;;;6.78;2.15;;;;;;;3.56;59.42;101333.19;5041989;28;20040;-79
2021/04/27 06:39:07;;;;;;;2.72;1.92;;;;;;;3.60;58.78;101332.09;5019946;28;20489;-79
2021/04/27 06:41:33;;;;;;;4.65;2.03;;;;;;;3.66;58.00;101342.44;5037214;28;20033;-78
2021/04/27 06:44:01;;;;;;;4.25;2.17;;;;;;;3.87;56.40;101333.34;5036647;28;20530;-78
2021/04/27 06:46:27;;;;;;;5.03;2.30;;;;;;;3.98;55.74;101339.91;5034777;28;20029;-79
2021/04/27 06:48:52;;;;;;;2.25;2.03;;;;;;;4.10;56.54;101328.66;5034486;28;20088;-78
2021/04/27 06:51:19;;;;;;;5.40;2.20;;;;;;;4.20;55.41;101329.06;5037196;28;20544;-79
2021/04/27 06:53:46;;;;;;;4.07;1.95;;;;;;;4.23;55.65;101327.06;5038688;28;20108;-79
2021/04/27 06:56:12;;;;;;;3.22;1.70;;;;;;;4.34;55.40;101322.03;5031692;28;20030;-79
2021/04/27 06:58:37;;;;;;;4.25;2.30;;;;;;;4.57;55.01;101320.81;5021722;28;20413;-78
2021/04/27 07:01:04;;;;;;;3.13;2.33;;;;;;;4.67;55.91;101312.31;5035211;28;20025;-80
2021/04/27 07:03:29;;;;;;;5.85;2.63;;;;;;;4.90;55.70;101322.56;5033696;28;20040;-79
2021/04/27 07:06:02;;;;;;;3.83;2.20;;;;;;;4.89;56.17;101318.16;5034170;28;20034;-79
2021/04/27 07:08:28;;;;;;;2.47;2.10;;;;;;;4.93;56.32;101318.84;5021761;28;20029;-79
2021/04/27 07:10:56;;;;;;;3.08;2.58;;;;;;;4.97;55.54;101315.09;5032805;28;20040;-79
2021/04/27 07:13:21;;;;;;;4.10;2.10;;;;;;;5.05;55.35;101319.06;5035251;28;20040;-79
2021/04/27 07:15:47;;;;;;;5.57;2.50;;;;;;;5.13;55.80;101317.75;5034747;28;20033;-79
2021/04/27 07:18:14;;;;;;;4.03;2.38;;;;;;;5.26;54.92;101313.44;5030071;28;20104;-79
2021/04/27 07:20:40;;;;;;;3.05;2.33;;;;;;;5.31;55.00;101308.72;5019418;28;20037;-79
2021/04/27 07:23:06;;;;;;;2.83;2.00;;;;;;;5.40;53.78;101307.31;5036720;28;20033;-79
2021/04/27 07:25:32;;;;;;;2.33;1.52;;;;;;;5.45;52.74;101307.94;5035738;28;20029;-79
2021/04/27 07:27:58;;;;;;;3.63;1.75;;;;;;;5.48;51.68;101308.59;5018828;28;20025;-79
2021/04/27 07:30:23;;;;;;;4.40;1.98;;;;;;;5.44;52.23;101312.38;5029596;28;20041;-79
2021/04/27 07:32:49;;;;;;;4.28;2.35;;;;;;;5.50;53.19;101305.84;5034234;28;20096;-78
2021/04/27 07:35:16;;;;;;;4.43;2.20;;;;;;;5.59;53.39;101304.44;5033713;28;20032;-79
2021/04/27 07:37:41;;;;;;;2.80;2.22;;;;;;;5.64;53.01;101302.38;5038377;28;20033;-79
2021/04/27 07:40:08;;;;;;;2.60;2.40;;;;;;;5.68;53.64;101298.56;5034956;28;20084;-78
2021/04/27 07:42:34;;;;;;;2.63;2.08;;;;;;;5.73;53.40;101296.50;5034535;28;20044;-79
2021/04/27 07:44:59;;;;;;;3.55;2.47;;;;;;;5.83;52.81;101302.13;5034291;28;20044;-78
2021/04/27 07:47:25;;;;;;;3.30;2.22;;;;;;;5.95;52.82;101296.94;5027198;28;20017;-78
2021/04/27 07:49:50;;;;;;;3.35;2.13;;;;;;;6.02;51.64;101301.91;5016089;28;20029;-79
2021/04/27 07:52:15;;;;;;;3.35;2.47;;;;;;;6.09;51.08;101303.25;5033638;28;20513;-79
2021/04/27 07:54:41;;;;;;;3.15;2.00;;;;;;;6.17;51.71;101301.00;5032972;28;20029;-78
2021/04/27 07:57:07;;;;;;;2.70;2.50;;;;;;;6.33;50.62;101307.09;5039579;28;20128;-79
2021/04/27 07:59:32;;;;;;;3.47;2.60;;;;;;;6.48;49.50;101299.94;5036360;28;20029;-79
2021/04/27 08:01:58;;;;;;;2.88;2.13;;;;;;;6.48;49.55;101294.59;5035478;28;20091;-78
2021/04/27 08:04:23;;;;;;;6.07;2.58;;;;;;;6.43;51.14;101294.91;5034432;28;20057;-79
2021/04/27 08:06:48;;;;;;;6.53;2.50;;;;;;;6.53;50.20;101289.84;5033915;28;20056;-78
2021/04/27 08:09:16;;;;;;;8.63;2.85;;;;;;;6.79;48.06;101281.97;5032646;28;20111;-79
2021/04/27 08:11:42;;;;;;;6.53;2.60;;;;;;;7.00;49.75;101285.09;5031705;28;20037;-79
2021/04/27 08:14:08;;;;;;;4.43;2.38;;;;;;;6.96;48.14;101291.59;5029124;28;20018;-78
2021/04/27 08:16:34;;;;;;;7.32;3.38;;;;;;;6.90;48.23;101291.03;5034806;28;20021;-78
2021/04/27 08:19:00;;;;;;;3.17;2.33;;;;;;;7.06;48.27;101282.88;5037647;28;20403;-78
2021/04/27 08:21:25;;;;;;;4.13;2.63;;;;;;;7.45;48.72;101291.06;5033608;28;20079;-78
2021/04/27 08:23:51;;;;;;;8.20;2.45;;;;;;;7.83;48.03;101286.63;5033450;28;20435;-78
2021/04/27 08:26:16;;;;;;;3.50;2.80;;;;;;;8.18;48.00;101290.53;5032163;28;20036;-79
2021/04/27 08:28:42;;;;;;;4.60;2.22;;;;;;;8.31;47.98;101288.72;5032422;28;20376;-78
2021/04/27 08:31:08;;;;;;;4.07;2.58;;;;;;;8.35;48.55;101294.72;5032223;28;20127;-79
2021/04/27 08:33:34;;;;;;;4.13;2.30;;;;;;;8.47;47.62;101286.69;5033318;28;20033;-80
2021/04/27 08:36:00;;;;;;;3.80;2.50;;;;;;;8.49;46.55;101284.75;5036943;28;20056;-80
2021/04/27 08:38:28;;;;;;;3.35;2.10;;;;;;;8.43;46.42;101292.38;5028607;28;20032;-79
2021/04/27 08:40:54;;;;;;;2.38;1.90;;;;;;;8.44;44.25;101281.53;5023141;28;20056;-79
2021/04/27 08:43:20;;;;;;;7.20;2.55;;;;;;;8.63;42.92;101289.16;5020433;28;20039;-79
2021/04/27 08:45:46;;;;;;;3.50;2.00;;;;;;;9.07;42.97;101282.38;5032843;28;20025;-78
2021/04/27 08:48:13;;;;;;;3.75;2.05;;;;;;;9.34;41.53;101287.53;5016017;28;20056;-78
2021/04/27 08:50:40;;;;;;;3.13;1.98;;;;;;;9.36;40.82;101280.19;5031998;28;20051;-79
2021/04/27 08:53:06;;;;;;;4.15;2.08;;;;;;;9.18;40.96;101287.81;5032682;28;20765;-79
2021/04/27 08:55:32;;;;;;;4.68;2.25;;;;;;;8.93;42.05;101288.75;5034024;28;20025;-79
2021/04/27 08:57:58;;;;;;;4.68;1.80;;;;;;;8.50;43.27;101278.44;5016109;28;20049;-79
2021/04/27 09:00:24;;;;;;;2.35;2.08;;;;;;;8.52;43.03;101275.66;5021967;28;20033;-78
2021/04/27 09:02:55;;;;;;;6.70;1.90;;;;;;;8.55;41.83;101280.78;5032141;28;20033;-78
2021/04/27 09:05:27;;;;;;;2.40;2.10;;;;;;;8.77;41.27;101271.22;5011758;28;20362;-78
2021/04/27 09:07:53;;;;;;;2.90;2.03;;;;;;;8.96;42.03;101274.25;5030927;28;20052;-78
2021/04/27 09:10:26;;;;;;;2.88;2.00;;;;;;;9.03;43.41;101288.94;5032910;28;20044;-79
2021/04/27 09:13:09;;;;;;;4.90;2.53;;;;;;;8.77;41.83;101282.78;5035649;28;20033;-79
2021/04/27 09:15:40;;;;;;;3.80;2.03;;;;;;;8.58;41.95;101279.72;5016247;28;20026;-79
2021/04/27 09:18:22;;;;;;;3.88;1.73;;;;;;;8.42;41.07;101270.09;5029965;28;20026;-79
2021/04/27 09:20:54;;;;;;;1.98;1.50;;;;;;;8.21;40.93;101279.63;5013773;28;20042;-78
2021/04/27 09:23:19;;;;;;;5.25;2.10;;;;;;;8.08;40.25;101271.59;5024900;28;20489;-79
2021/04/27 09:26:10;;;;;;;2.90;1.90;;;;;;;8.15;40.07;101267.50;5031426;28;20091;-79
2021/04/27 09:28:37;;;;;;;5.90;2.88;;;;;;;8.36;39.06;101256.25;5017207;28;20041;-78
2021/04/27 09:31:31;;;;;;;2.88;1.90;;;;;;;8.92;40.32;101264.72;5032828;28;20033;-79
2021/04/27 09:34:20;;;;;;;3.88;2.00;;;;;;;9.25;39.24;101265.91;5033393;28;20022;-79
2021/04/27 09:36:47;;;;;;;6.80;2.90;;;;;;;9.08;38.41;101267.13;5036517;28;20025;-79
2021/04/27 09:39:13;;;;;;;1.85;1.73;;;;;;;9.16;38.63;101257.56;5021544;28;20033;-80
2021/04/27 09:41:39;;;;;;;2.92;2.17;;;;;;;9.41;39.41;101271.81;5032859;28;20400;-79
2021/04/27 09:44:06;;;;;;;3.20;2.17;;;;;;;9.75;37.57;101271.94;5014665;28;20017;-79
2021/04/27 09:46:32;;;;;;;3.40;1.67;;;;;;;9.77;38.16;101261.97;5025375;28;20556;-79
2021/04/27 09:49:00;;;;;;;5.38;1.60;;;;;;;9.55;38.56;101268.97;5031317;28;20032;-78
2021/04/27 09:51:36;;;;;;;1.98;1.77;;;;;;;9.47;39.16;101257.09;5031879;28;20592;-79
2021/04/27 09:54:03;;;;;;;10.38;2.10;;;;;;;9.37;37.87;101254.25;5014953;28;20088;-79
2021/04/27 09:56:33;;;;;;;1.80;1.50;;;;;;;9.25;38.69;101260.53;5026810;28;20032;-79
2021/04/27 09:59:05;;;;;;;6.82;3.05;;;;;;;9.15;40.16;101254.97;5032925;28;20111;-79
2021/04/27 10:01:31;;;;;;;5.47;2.15;;;;;;;9.06;39.47;101256.53;5032637;28;20060;-79
2021/04/27 10:03:57;;;;;;;7.53;2.17;;;;;;;9.10;41.11;101249.97;5013241;28;20026;-78
2021/04/27 10:06:23;;;;;;;4.25;1.80;;;;;;;9.27;38.26;101251.38;5031081;28;20036;-79
2021/04/27 10:08:49;;;;;;;6.93;2.15;;;;;;;9.32;38.00;101254.56;5016153;28;20400;-79
2021/04/27 10:11:15;;;;;;;3.00;1.80;;;;;;;9.32;37.65;101251.03;5033179;28;20056;-79
2021/04/27 10:13:42;;;;;;;5.97;1.95;;;;;;;9.30;38.56;101253.81;5035199;28;20053;-79
2021/04/27 10:16:07;;;;;;;3.08;1.83;;;;;;;9.18;40.21;101242.19;5016850;28;20056;-80
2021/04/27 10:18:37;;;;;;;3.13;1.67;;;;;;;9.19;39.64;101243.06;5031920;28;20056;-79
2021/04/27 10:21:05;;;;;;;3.90;1.77;;;;;;;9.15;38.84;101233.50;5029705;28;20033;-79
2021/04/27 10:23:31;;;;;;;2.00;1.60;;;;;;;9.11;40.08;101243.59;5022463;28;20037;-79
2021/04/27 10:25:57;;;;;;;4.10;2.05;;;;;;;9.01;39.43;101233.69;5037430;28;20060;-80
2021/04/27 10:28:22;;;;;;;2.50;2.05;;;;;;;9.04;40.58;101228.09;5038305;28;20472;-79
2021/04/27 10:30:48;;;;;;;3.85;2.30;;;;;;;9.09;39.92;101220.53;5026820;28;20587;-79
2021/04/27 10:33:23;;;;;;;4.20;2.10;;;;;;;9.27;39.57;101232.59;5037026;28;20107;-79
2021/04/27 10:36:21;;;;;;;3.28;1.95;;;;;;;9.26;40.46;101221.97;5036099;28;20036;-80
2021/04/27 10:38:49;;;;;;;4.57;2.10;;;;;;;9.24;38.83;101221.22;4990329;28;20132;-79
2021/04/27 10:41:21;;;;;;;3.88;2.08;;;;;;;9.21;39.21;101222.31;5024227;28;20029;-79
2021/04/27 10:43:59;;;;;;;3.25;1.70;;;;;;;9.32;39.60;101224.19;5034287;28;20485;-79
2021/04/27 10:46:25;;;;;;;2.75;2.00;;;;;;;9.25;38.62;101217.59;5037726;28;20022;-79
2021/04/27 10:48:50;;;;;;;2.75;1.90;;;;;;;9.32;39.20;101210.78;5037861;28;20051;-79
2021/04/27 10:51:23;;;;;;;2.80;2.08;;;;;;;9.34;40.50;101211.53;5037739;28;20081;-79
2021/04/27 10:54:10;;;;;;;3.38;2.20;;;;;;;9.32;39.94;101210.78;5035608;28;20099;-78
2021/04/27 10:56:38;;;;;;;3.13;1.67;;;;;;;9.41;40.13;101207.41;5033976;28;20116;-79
2021/04/27 10:59:08;;;;;;;3.08;1.63;;;;;;;9.44;38.51;101197.28;5023934;28;20120;-79
2021/04/27 11:01:34;;;;;;;3.63;2.10;;;;;;;9.47;38.43;101190.81;5031170;28;20037;-79
2021/04/27 11:04:00;;;;;;;4.55;3.00;;;;;;;9.51;39.65;101196.81;5035002;28;20030;-79
2021/04/27 11:06:25;;;;;;;4.05;1.85;;;;;;;9.48;39.21;101191.66;5037571;28;20136;-79
2021/04/27 11:08:53;;;;;;;2.58;1.88;;;;;;;9.68;40.72;101198.19;5035085;28;20029;-79
2021/04/27 11:11:30;;;;;;;2.78;2.13;;;;;;;9.75;40.98;101194.06;5026850;28;20041;-79
2021/04/27 11:14:22;;;;;;;3.58;2.00;;;;;;;9.64;38.11;101187.69;5035113;28;20076;-79
2021/04/27 11:16:56;;;;;;;2.47;2.00;;;;;;;9.60;40.22;101194.25;5025419;28;20094;-79
2021/04/27 11:19:26;;;;;;;6.15;2.20;;;;;;;9.81;41.23;101188.22;5028632;28;20385;-79
2021/04/27 11:21:54;;;;;;;4.18;2.25;;;;;;;9.93;37.86;101179.19;5034450;28;20033;-79
2021/04/27 11:24:39;;;;;;;3.95;1.80;;;;;;;10.13;41.39;101172.22;5036376;28;20033;-79
2021/04/27 11:27:18;;;;;;;2.30;1.85;;;;;;;10.11;37.48;101174.19;5036184;28;20033;-79
2021/04/27 11:29:59;;;;;;;2.85;1.80;;;;;;;9.91;39.50;101175.75;5034393;28;20515;-78